Time;durP1;ratioP1;P1;durP2;ratioP2;P2;SDS_P1;SDS_P2;PMS_P1;PMS_P2;Temp;Humidity;BMP_temperature;BMP_pressure;BME280_temperature;BME280_humidity;BME280_pressure;Samples;Min_cycle;Max_cycle;Signal;HPM_P1;HPM_P2
2023/08/05 00:00:59;;;;;;;7.95;5.95;;;;;;;28.88;39.34;94674.53;4952670;28;20043;-86
2023/08/05 00:03:26;;;;;;;7.03;5.72;;;;;;;29.00;39.58;94704.81;4962280;28;20074;-87
2023/08/05 00:05:52;;;;;;;12.15;6.03;;;;;;;29.05;39.48;94707.16;4938270;28;20074;-86
2023/08/05 00:08:17;;;;;;;7.32;5.70;;;;;;;28.70;39.44;94636.44;4956295;28;20054;-88
2023/08/05 00:10:46;;;;;;;7.53;6.00;;;;;;;28.35;39.21;94580.22;4944854;28;20043;-86
2023/08/05 00:13:12;;;;;;;8.38;6.45;;;;;;;29.22;39.62;94715.59;5038560;28;20034;-88
2023/08/05 00:15:39;;;;;;;15.77;5.63;;;;;;;29.01;39.62;94690.00;5012108;28;20089;-87
2023/08/05 00:18:08;;;;;;;10.25;5.47;;;;;;;27.93;39.61;94526.72;5028934;28;20058;-86
2023/08/05 00:20:33;;;;;;;8.50;5.63;;;;;;;29.03;39.55;94693.13;4945048;28;20042;-87
2023/08/05 00:22:59;;;;;;;16.55;6.00;;;;;;;27.38;39.39;94440.28;4936788;28;20023;-87
2023/08/05 00:25:24;;;;;;;6.95;6.25;;;;;;;28.56;39.59;94603.81;4936722;28;20283;-88
2023/08/05 00:27:53;;;;;;;8.73;6.55;;;;;;;29.27;39.54;94685.09;4975900;28;20332;-87
2023/08/05 00:30:18;;;;;;;10.07;5.97;;;;;;;28.70;39.65;94634.47;4976958;28;20097;-88
2023/08/05 00:32:44;;;;;;;10.60;6.28;;;;;;;29.00;39.81;94674.81;4940056;28;20023;-89
2023/08/05 00:35:09;;;;;;;11.43;6.32;;;;;;;29.21;39.54;94690.22;4960773;28;20122;-87
2023/08/05 00:37:36;;;;;;;8.50;6.20;;;;;;;28.37;39.74;94566.97;4960629;28;20039;-88
2023/08/05 00:40:04;;;;;;;13.52;5.47;;;;;;;28.51;39.69;94576.97;4964770;28;20032;-88
2023/08/05 00:42:29;;;;;;;10.27;6.50;;;;;;;28.79;39.66;94640.28;5055555;28;20031;-89
2023/08/05 00:44:55;;;;;;;9.50;6.63;;;;;;;27.27;39.63;94406.91;4962111;28;20027;-88
2023/08/05 00:47:21;;;;;;;9.13;6.10;;;;;;;28.39;39.94;94584.44;5017525;28;20101;-89
2023/08/05 00:49:49;;;;;;;9.48;6.50;;;;;;;28.55;39.51;94596.81;5004089;28;20032;-88
2023/08/05 00:52:16;;;;;;;10.23;6.43;;;;;;;28.41;39.78;94584.84;4991732;28;20039;-89
2023/08/05 00:54:43;;;;;;;7.95;6.10;;;;;;;28.13;40.24;94546.84;4936914;28;20066;-88
2023/08/05 00:57:11;;;;;;;7.15;5.72;;;;;;;28.87;40.51;94684.66;4963876;28;20058;-87
2023/08/05 00:59:37;;;;;;;8.38;5.70;;;;;;;28.64;40.20;94660.66;4937842;28;20489;-88
2023/08/05 01:02:02;;;;;;;9.10;6.35;;;;;;;28.38;40.55;94631.22;4954613;28;20085;-87
2023/08/05 01:04:27;;;;;;;8.80;6.10;;;;;;;28.56;40.24;94633.81;4957438;28;20125;-87
2023/08/05 01:06:54;;;;;;;9.25;6.20;;;;;;;28.88;40.22;94688.94;4985523;28;20512;-87
2023/08/05 01:09:20;;;;;;;10.35;5.78;;;;;;;28.68;40.34;94666.88;5000543;28;20063;-87
2023/08/05 01:11:46;;;;;;;8.95;5.95;;;;;;;28.67;40.52;94659.84;4961804;28;20099;-87
2023/08/05 01:14:13;;;;;;;10.40;6.20;;;;;;;28.50;40.39;94627.25;4976504;28;20095;-87
2023/08/05 01:16:41;;;;;;;7.35;6.28;;;;;;;28.55;40.60;94640.44;5071553;28;20105;-88
2023/08/05 01:19:18;;;;;;;11.10;6.13;;;;;;;27.83;40.27;94527.59;4948602;28;20077;-88
2023/08/05 01:22:16;;;;;;;9.45;5.65;;;;;;;28.66;40.82;94671.16;4982165;28;20094;-85
2023/08/05 01:24:52;;;;;;;8.20;6.07;;;;;;;28.60;40.71;94653.69;4967524;28;20041;-85
2023/08/05 01:27:18;;;;;;;11.02;6.25;;;;;;;28.05;41.12;94602.59;4963124;28;20066;-85
2023/08/05 01:29:44;;;;;;;7.47;6.15;;;;;;;28.10;41.28;94621.25;4974805;28;20035;-85
2023/08/05 01:32:10;;;;;;;8.80;6.15;;;;;;;28.37;41.36;94651.50;4973732;28;20104;-86
2023/08/05 01:34:37;;;;;;;8.40;6.13;;;;;;;28.55;41.27;94662.25;4939140;28;20109;-85
2023/08/05 01:37:03;;;;;;;8.27;6.55;;;;;;;27.05;41.88;94477.00;4938603;28;20039;-85
2023/08/05 01:39:28;;;;;;;12.57;6.10;;;;;;;28.24;41.57;94656.63;5028668;28;20036;-85
2023/08/05 01:41:54;;;;;;;8.25;5.82;;;;;;;28.04;42.18;94656.31;5036858;28;20042;-86
2023/08/05 01:44:19;;;;;;;9.73;6.60;;;;;;;27.61;42.23;94628.50;5000336;28;20098;-85
2023/08/05 01:46:45;;;;;;;10.82;5.30;;;;;;;27.67;42.04;94628.88;4974119;28;20398;-86
2023/08/05 01:49:10;;;;;;;12.60;6.43;;;;;;;27.64;41.71;94569.72;5012319;28;20040;-86
2023/08/05 01:51:36;;;;;;;11.32;6.57;;;;;;;27.51;41.91;94580.25;4943252;28;20043;-85
2023/08/05 01:54:01;;;;;;;9.90;6.55;;;;;;;27.35;42.18;94555.44;4947288;28;20127;-85
2023/08/05 01:56:26;;;;;;;12.15;6.30;;;;;;;27.67;42.24;94606.28;4947131;28;20126;-85
2023/08/05 01:58:52;;;;;;;8.70;6.13;;;;;;;27.92;42.43;94675.09;4960121;28;20487;-85
2023/08/05 02:01:17;;;;;;;9.55;6.63;;;;;;;27.39;42.47;94607.91;4975043;28;20515;-85
2023/08/05 02:03:43;;;;;;;7.72;6.57;;;;;;;27.85;42.13;94636.94;4937964;28;20092;-85
2023/08/05 02:06:08;;;;;;;13.30;5.90;;;;;;;27.90;42.37;94658.34;5006487;28;20043;-85
2023/08/05 02:08:34;;;;;;;10.63;5.95;;;;;;;27.46;42.34;94597.03;5029329;28;20061;-85
2023/08/05 02:10:59;;;;;;;10.98;6.80;;;;;;;27.36;42.59;94600.53;4956882;28;20031;-85
2023/08/05 02:13:25;;;;;;;10.60;6.85;;;;;;;27.43;42.04;94581.47;5020175;28;20273;-85
2023/08/05 02:15:50;;;;;;;10.65;5.80;;;;;;;27.63;42.17;94628.09;5007748;28;20040;-85
2023/08/05 02:18:16;;;;;;;8.32;6.05;;;;;;;27.79;42.36;94633.84;4989135;28;20521;-84
2023/08/05 02:20:41;;;;;;;7.55;5.97;;;;;;;27.36;42.48;94619.59;4985380;28;20023;-85
2023/08/05 02:23:06;;;;;;;10.93;6.30;;;;;;;27.55;42.69;94627.34;4955742;28;20059;-85
2023/08/05 02:25:32;;;;;;;10.00;6.53;;;;;;;27.46;42.60;94626.19;4985583;28;20035;-85
2023/08/05 02:27:57;;;;;;;7.50;6.20;;;;;;;27.50;42.59;94616.06;4967629;28;20035;-85
2023/08/05 02:30:23;;;;;;;12.07;6.47;;;;;;;27.11;42.45;94569.91;4948118;28;20042;-85
2023/08/05 02:32:48;;;;;;;7.13;6.07;;;;;;;27.64;42.30;94637.81;4947668;28;20034;-85
2023/08/05 02:35:14;;;;;;;9.18;6.05;;;;;;;27.39;42.76;94621.53;5013899;28;20040;-85
2023/08/05 02:37:39;;;;;;;9.80;6.38;;;;;;;27.11;43.04;94581.56;4997897;28;20035;-85
2023/08/05 02:40:05;;;;;;;6.85;5.75;;;;;;;27.78;42.48;94662.28;4936490;28;20384;-85
2023/08/05 02:42:33;;;;;;;12.23;6.15;;;;;;;27.83;42.43;94666.56;4936388;29;20043;-85
2023/08/05 02:44:58;;;;;;;10.18;6.50;;;;;;;25.80;42.86;94390.63;4987742;28;20196;-85
2023/08/05 02:47:24;;;;;;;8.23;6.30;;;;;;;27.67;42.65;94652.59;5024533;28;20060;-85
2023/08/05 02:49:50;;;;;;;8.88;5.93;;;;;;;26.42;42.91;94475.97;5002992;28;20098;-85
2023/08/05 02:52:16;;;;;;;11.52;6.18;;;;;;;27.45;43.24;94652.66;4970300;28;20040;-85
2023/08/05 02:54:41;;;;;;;8.95;6.15;;;;;;;26.78;43.49;94568.38;4936288;28;20039;-85
2023/08/05 02:57:06;;;;;;;9.98;6.32;;;;;;;27.13;43.86;94644.56;4954006;28;20131;-85
2023/08/05 02:59:32;;;;;;;10.25;5.97;;;;;;;27.18;43.33;94629.75;4965143;28;20106;-85
2023/08/05 03:01:57;;;;;;;9.52;6.10;;;;;;;27.24;43.64;94652.69;4952819;28;20023;-88
2023/08/05 03:04:23;;;;;;;7.75;6.10;;;;;;;26.92;43.56;94586.66;4965724;28;20115;-88
2023/08/05 03:06:48;;;;;;;10.18;6.22;;;;;;;27.36;43.19;94640.59;4966629;28;20031;-88
2023/08/05 03:09:14;;;;;;;13.30;6.80;;;;;;;27.03;43.44;94592.84;4926132;28;20063;-87
2023/08/05 03:11:39;;;;;;;9.40;5.85;;;;;;;26.20;43.31;94469.00;4915745;29;20036;-88
2023/08/05 03:14:04;;;;;;;10.80;6.07;;;;;;;27.37;42.98;94658.50;4959252;28;20038;-87
2023/08/05 03:16:30;;;;;;;10.48;6.35;;;;;;;26.68;43.32;94545.47;4950520;28;20075;-88
2023/08/05 03:18:56;;;;;;;10.02;6.40;;;;;;;27.14;43.54;94662.44;4916851;29;20471;-88
2023/08/05 03:21:21;;;;;;;13.40;6.90;;;;;;;26.37;43.87;94549.78;4915263;29;20043;-87
2023/08/05 03:23:47;;;;;;;9.88;6.75;;;;;;;26.16;43.45;94500.84;4917847;29;20122;-87
2023/08/05 03:26:12;;;;;;;9.90;6.70;;;;;;;26.55;43.65;94574.22;4915495;29;20036;-88
2023/08/05 03:28:38;;;;;;;8.18;6.32;;;;;;;27.02;43.82;94662.81;4916302;28;20044;-88
2023/08/05 03:31:03;;;;;;;10.07;6.70;;;;;;;25.84;44.24;94491.91;4927835;28;20093;-88
2023/08/05 03:33:29;;;;;;;11.23;6.03;;;;;;;27.06;43.81;94669.06;4915921;28;20465;-88
2023/08/05 03:35:54;;;;;;;10.27;5.97;;;;;;;25.80;43.43;94431.34;4917208;28;20032;-88
2023/08/05 03:38:20;;;;;;;10.77;6.35;;;;;;;27.17;43.74;94647.25;4941892;28;20121;-89
2023/08/05 03:40:45;;;;;;;10.80;6.03;;;;;;;27.05;43.35;94621.25;4977495;28;20024;-89
2023/08/05 03:43:11;;;;;;;8.27;6.45;;;;;;;27.15;43.42;94664.00;4915316;28;20032;-86
2023/08/05 03:45:36;;;;;;;8.65;6.13;;;;;;;26.87;43.88;94617.72;4913159;28;20028;-85
2023/08/05 03:48:02;;;;;;;13.38;6.60;;;;;;;26.99;43.68;94636.41;4912810;28;20054;-84
2023/08/05 03:50:28;;;;;;;10.38;6.00;;;;;;;26.81;43.85;94630.16;4912457;28;20491;-85
2023/08/05 03:52:57;;;;;;;11.68;6.53;;;;;;;27.09;43.94;94645.72;4914669;28;20479;-85
2023/08/05 03:55:23;;;;;;;13.63;6.38;;;;;;;26.64;43.94;94612.69;4920964;29;20028;-85
2023/08/05 03:57:49;;;;;;;8.95;6.43;;;;;;;25.85;43.75;94467.06;4912393;28;20125;-85
2023/08/05 04:00:15;;;;;;;7.07;6.18;;;;;;;27.07;43.56;94626.28;4913176;29;20062;-85
2023/08/05 04:02:41;;;;;;;9.95;6.03;;;;;;;27.17;43.83;94644.53;4929249;28;20581;-84
2023/08/05 04:05:07;;;;;;;9.68;5.88;;;;;;;26.99;44.13;94628.25;4919889;28;20044;-85
2023/08/05 04:07:33;;;;;;;11.68;6.13;;;;;;;27.17;43.58;94647.25;4912889;28;20031;-84
2023/08/05 04:09:59;;;;;;;9.35;6.15;;;;;;;27.17;43.48;94636.38;4962688;28;20049;-85
2023/08/05 04:12:28;;;;;;;10.00;5.72;;;;;;;26.76;43.55;94579.66;4972790;28;20104;-85
2023/08/05 04:14:57;;;;;;;8.90;6.65;;;;;;;26.27;43.53;94488.03;4951647;28;20039;-85
2023/08/05 04:17:23;;;;;;;8.63;6.25;;;;;;;27.24;43.24;94641.78;4955649;28;20031;-85
2023/08/05 04:19:50;;;;;;;8.20;5.97;;;;;;;26.34;43.84;94536.19;4958436;28;20451;-85
2023/08/05 04:22:19;;;;;;;8.63;5.82;;;;;;;27.07;43.59;94634.47;5011892;28;20038;-85
2023/08/05 04:24:45;;;;;;;7.68;6.25;;;;;;;27.07;43.52;94629.00;4962776;28;20257;-85
2023/08/05 04:27:11;;;;;;;9.05;5.97;;;;;;;27.02;43.76;94634.84;5002523;28;20025;-85
2023/08/05 04:29:36;;;;;;;7.82;6.20;;;;;;;26.65;44.09;94584.34;5033202;28;20041;-85
2023/08/05 04:32:03;;;;;;;7.47;5.82;;;;;;;27.03;43.51;94607.22;5026857;28;20041;-85
2023/08/05 04:34:33;;;;;;;12.27;6.00;;;;;;;27.32;43.34;94639.81;4959421;28;20454;-85
2023/08/05 04:37:21;;;;;;;10.88;6.60;;;;;;;27.28;43.13;94629.75;4936146;28;20478;-86
2023/08/05 04:39:47;;;;;;;9.63;6.05;;;;;;;26.78;43.19;94568.38;4956630;28;20031;-85
2023/08/05 04:42:13;;;;;;;7.50;6.38;;;;;;;26.97;43.25;94608.81;4962673;28;20519;-85
2023/08/05 04:44:42;;;;;;;9.90;6.15;;;;;;;27.32;43.33;94659.66;4950190;28;20263;-85
2023/08/05 04:47:09;;;;;;;6.57;5.55;;;;;;;26.56;43.36;94529.56;4986431;28;20058;-85
2023/08/05 04:49:35;;;;;;;7.35;5.43;;;;;;;27.16;42.70;94602.91;4987879;28;20080;-85
2023/08/05 04:52:02;;;;;;;11.30;6.03;;;;;;;26.83;43.06;94546.22;5024404;28;20060;-88
2023/08/05 04:54:27;;;;;;;7.22;5.88;;;;;;;27.45;43.03;94630.09;4986934;28;20094;-88
2023/08/05 04:56:53;;;;;;;9.13;6.05;;;;;;;27.37;43.03;94637.50;5006441;28;20033;-88
2023/08/05 04:59:19;;;;;;;13.48;6.35;;;;;;;27.30;42.78;94617.69;4987460;28;20084;-88
2023/08/05 05:01:44;;;;;;;7.97;6.15;;;;;;;27.12;42.57;94599.44;4949482;28;20027;-88
2023/08/05 05:04:10;;;;;;;10.90;5.93;;;;;;;27.01;43.44;94606.06;4977032;28;20122;-89
2023/08/05 05:06:35;;;;;;;11.68;6.05;;;;;;;27.21;43.44;94639.88;4969948;28;20059;-88
2023/08/05 05:09:00;;;;;;;8.48;6.43;;;;;;;27.01;43.48;94630.56;4973980;28;20045;-88
2023/08/05 05:11:26;;;;;;;9.93;6.07;;;;;;;27.08;43.26;94616.97;4973319;28;20036;-86
2023/08/05 05:13:52;;;;;;;10.70;6.28;;;;;;;27.03;43.65;94636.38;4983799;28;20051;-88
2023/08/05 05:16:18;;;;;;;10.05;6.35;;;;;;;27.19;43.27;94629.38;4940082;28;20126;-89
2023/08/05 05:18:43;;;;;;;8.90;6.13;;;;;;;27.50;42.94;94651.44;4957224;28;20024;-86
2023/08/05 05:21:09;;;;;;;11.27;6.10;;;;;;;27.46;42.98;94646.03;4953570;28;20065;-86
2023/08/05 05:23:35;;;;;;;8.50;5.15;;;;;;;27.38;42.93;94608.31;5038090;28;20039;-85
2023/08/05 05:26:01;;;;;;;10.73;5.78;;;;;;;26.91;42.85;94539.63;4996841;28;20112;-85
2023/08/05 05:28:26;;;;;;;11.50;6.22;;;;;;;27.13;42.99;94597.50;4962730;28;20026;-85
2023/08/05 05:30:52;;;;;;;8.68;6.45;;;;;;;26.98;43.05;94566.06;4939095;28;20039;-85
2023/08/05 05:33:17;;;;;;;12.60;8.95;;;;;;;27.44;43.20;94621.13;4972173;28;20039;-86
2023/08/05 05:35:43;;;;;;;14.27;6.68;;;;;;;27.37;43.05;94606.78;4997543;28;20077;-85
2023/08/05 05:38:11;;;;;;;11.27;5.95;;;;;;;26.84;42.98;94534.97;4991863;28;20039;-85
2023/08/05 05:40:40;;;;;;;8.35;5.70;;;;;;;27.47;43.45;94622.28;5002930;28;20039;-85
2023/08/05 05:43:06;;;;;;;10.02;6.72;;;;;;;27.59;43.02;94630.84;4993055;28;20120;-86
2023/08/05 05:45:34;;;;;;;14.10;7.28;;;;;;;27.73;42.83;94640.91;4938566;28;20042;-86
2023/08/05 05:47:59;;;;;;;12.65;7.72;;;;;;;27.84;43.10;94646.31;4973290;28;20042;-86
2023/08/05 05:50:25;;;;;;;13.18;6.78;;;;;;;27.69;43.19;94614.84;4956631;28;20498;-85
2023/08/05 05:52:51;;;;;;;8.65;6.63;;;;;;;27.50;43.02;94581.44;4955515;28;20039;-86
2023/08/05 05:55:17;;;;;;;8.10;6.75;;;;;;;27.19;43.12;94520.50;4939001;28;20031;-85
2023/08/05 05:57:43;;;;;;;12.40;6.68;;;;;;;27.50;43.16;94600.50;4939307;28;20113;-86
2023/08/05 06:00:09;;;;;;;14.98;6.32;;;;;;;26.81;43.15;94489.50;4962480;28;20066;-86
2023/08/05 06:02:35;;;;;;;15.52;6.47;;;;;;;26.74;43.31;94499.63;4970369;28;20032;-87
2023/08/05 06:05:00;;;;;;;11.25;6.57;;;;;;;26.64;43.02;94476.72;5039013;28;20069;-86
2023/08/05 06:07:26;;;;;;;12.63;6.60;;;;;;;27.50;42.53;94605.16;5017864;28;20030;-86
2023/08/05 06:09:51;;;;;;;9.82;7.07;;;;;;;27.31;42.08;94571.00;5042393;28;20433;-87
2023/08/05 06:12:18;;;;;;;12.00;6.25;;;;;;;26.72;42.30;94499.22;4973713;28;20156;-87
2023/08/05 06:14:44;;;;;;;11.90;6.47;;;;;;;27.75;42.32;94627.66;4973439;28;20038;-86
2023/08/05 06:17:09;;;;;;;7.15;5.95;;;;;;;26.98;42.28;94503.47;4972106;28;20071;-86
2023/08/05 06:19:35;;;;;;;14.70;6.40;;;;;;;26.74;42.20;94459.59;5007372;28;20057;-86
2023/08/05 06:22:00;;;;;;;17.25;6.35;;;;;;;27.44;42.50;94550.34;4966543;28;20027;-85
2023/08/05 06:24:25;;;;;;;14.50;6.50;;;;;;;27.80;42.71;94621.78;4970308;28;20042;-87
2023/08/05 06:26:51;;;;;;;11.73;7.97;;;;;;;27.27;42.25;94502.97;4968896;28;20035;-86
2023/08/05 06:29:16;;;;;;;10.57;6.20;;;;;;;27.07;41.47;94443.97;4985283;28;20039;-86
2023/08/05 06:31:44;;;;;;;9.45;6.28;;;;;;;28.03;41.41;94600.25;5050181;28;20059;-88
2023/08/05 06:34:09;;;;;;;8.52;6.35;;;;;;;27.07;41.86;94439.28;5013464;28;20035;-86
2023/08/05 06:36:35;;;;;;;13.00;6.95;;;;;;;28.04;41.81;94587.41;5005238;28;20102;-88
2023/08/05 06:39:00;;;;;;;12.18;6.30;;;;;;;27.97;41.71;94555.53;4938564;28;20062;-89
2023/08/05 06:41:26;;;;;;;8.98;5.75;;;;;;;27.81;41.55;94533.44;5011619;28;20031;-88
2023/08/05 06:43:51;;;;;;;10.55;6.38;;;;;;;27.68;41.37;94490.72;4994097;28;20037;-88
2023/08/05 06:46:17;;;;;;;12.18;6.07;;;;;;;27.97;41.44;94533.72;5002999;28;20470;-88
2023/08/05 06:48:42;;;;;;;7.28;6.20;;;;;;;28.25;41.45;94573.66;4978490;28;20088;-88
2023/08/05 06:51:08;;;;;;;14.30;6.55;;;;;;;27.84;41.65;94520.97;4979062;28;20089;-88
2023/08/05 06:53:38;;;;;;;10.75;6.25;;;;;;;27.93;41.78;94519.34;4941624;28;20131;-87
2023/08/05 06:56:03;;;;;;;11.60;6.30;;;;;;;27.21;41.84;94414.72;4955154;29;20131;-88
2023/08/05 06:58:29;;;;;;;19.20;8.30;;;;;;;28.29;41.32;94565.47;4949982;28;20063;-89
2023/08/05 07:00:55;;;;;;;12.93;6.75;;;;;;;27.71;41.13;94468.09;4970781;28;20031;-88
2023/08/05 07:03:24;;;;;;;9.05;5.88;;;;;;;26.36;41.27;94262.03;4973694;28;20040;-89
2023/08/05 07:05:55;;;;;;;9.63;6.43;;;;;;;27.56;41.30;94423.84;5041981;28;20033;-88
2023/08/05 07:08:22;;;;;;;11.73;6.15;;;;;;;27.19;41.40;94372.72;4941326;28;20063;-88
2023/08/05 07:10:57;;;;;;;9.00;7.05;;;;;;;28.11;41.16;94493.91;4957570;28;20054;-86
2023/08/05 07:13:24;;;;;;;13.77;6.65;;;;;;;28.26;41.08;94520.69;4953750;28;20039;-86
2023/08/05 07:15:49;;;;;;;8.02;6.07;;;;;;;28.39;41.06;94512.78;4997111;28;20027;-85
2023/08/05 07:18:15;;;;;;;12.77;7.10;;;;;;;28.40;41.40;94526.00;5018264;28;20031;-86
2023/08/05 07:20:40;;;;;;;12.15;6.40;;;;;;;28.42;41.00;94520.16;4991271;28;20057;-86
2023/08/05 07:23:06;;;;;;;12.15;6.57;;;;;;;27.92;40.59;94425.13;4981334;28;20034;-86
2023/08/05 07:25:31;;;;;;;12.18;6.60;;;;;;;28.58;40.54;94536.00;4957249;28;20031;-86
2023/08/05 07:27:57;;;;;;;12.27;6.80;;;;;;;28.75;40.40;94540.50;4937227;28;20035;-86
2023/08/05 07:30:22;;;;;;;9.13;6.45;;;;;;;28.53;40.79;94492.78;4967789;28;20027;-85
2023/08/05 07:32:48;;;;;;;11.23;6.53;;;;;;;28.50;41.15;94490.88;4955023;28;20041;-85
2023/08/05 07:35:14;;;;;;;11.63;7.15;;;;;;;28.60;41.50;94515.31;5040047;28;20025;-85
2023/08/05 07:37:42;;;;;;;10.43;6.18;;;;;;;28.63;41.16;94525.41;5049881;28;20032;-85
2023/08/05 07:40:12;;;;;;;10.90;7.18;;;;;;;28.60;41.37;94496.22;5053443;28;20408;-86
2023/08/05 07:42:40;;;;;;;9.10;6.32;;;;;;;28.67;40.62;94509.03;5012932;28;20027;-87
2023/08/05 07:45:10;;;;;;;8.00;6.05;;;;;;;28.13;40.40;94396.94;4955690;29;20085;-89
2023/08/05 07:47:40;;;;;;;9.15;6.28;;;;;;;29.03;40.77;94517.63;4937733;28;20046;-88
2023/08/05 07:50:07;;;;;;;11.88;6.10;;;;;;;28.88;40.67;94495.19;4945038;28;20046;-87
2023/08/05 07:52:33;;;;;;;8.98;5.97;;;;;;;28.16;41.23;94384.44;4993178;28;20519;-88
2023/08/05 07:54:59;;;;;;;11.15;6.57;;;;;;;27.80;40.42;94291.34;4975804;28;20059;-87
2023/08/05 07:57:25;;;;;;;16.05;6.32;;;;;;;29.27;39.76;94521.25;4975576;28;20042;-88
2023/08/05 07:59:52;;;;;;;7.47;5.90;;;;;;;28.34;39.83;94377.66;4969014;28;20615;-88
2023/08/05 08:02:17;;;;;;;12.90;6.20;;;;;;;29.17;40.28;94477.28;4971497;28;20481;-88
2023/08/05 08:04:44;;;;;;;11.10;6.78;;;;;;;29.32;40.28;94518.06;4956192;28;20035;-88
2023/08/05 08:07:10;;;;;;;8.32;5.97;;;;;;;28.38;40.20;94363.97;4954573;28;20046;-88
2023/08/05 08:09:35;;;;;;;11.77;6.68;;;;;;;28.48;40.58;94373.22;4936903;28;20055;-87
2023/08/05 08:12:01;;;;;;;8.52;6.13;;;;;;;29.43;40.42;94516.00;4940002;28;20046;-87
2023/08/05 08:14:26;;;;;;;9.00;6.30;;;;;;;29.05;40.62;94456.00;4954388;28;20493;-87
2023/08/05 08:16:52;;;;;;;13.75;6.40;;;;;;;29.00;40.37;94445.50;4958354;28;20034;-89
2023/08/05 08:19:18;;;;;;;9.07;6.75;;;;;;;29.45;40.34;94498.00;5004776;28;20043;-86
2023/08/05 08:21:47;;;;;;;14.55;6.40;;;;;;;29.35;40.38;94477.09;4941412;28;20023;-86
2023/08/05 08:24:12;;;;;;;8.68;6.15;;;;;;;29.45;40.22;94475.38;4971677;28;20031;-86
2023/08/05 08:26:38;;;;;;;10.60;6.60;;;;;;;29.68;40.12;94497.31;4986223;28;20045;-85
2023/08/05 08:29:03;;;;;;;10.32;6.32;;;;;;;29.45;40.28;94448.84;4961176;28;20039;-86
2023/08/05 08:31:30;;;;;;;11.55;6.88;;;;;;;29.37;40.42;94427.53;4967567;28;20042;-86
2023/08/05 08:33:58;;;;;;;16.17;7.13;;;;;;;29.87;40.47;94484.94;4986291;28;20138;-86
2023/08/05 08:36:24;;;;;;;17.33;6.80;;;;;;;29.41;40.29;94439.94;4976553;28;20035;-86
2023/08/05 08:38:50;;;;;;;10.95;6.80;;;;;;;29.74;40.37;94484.75;4952356;28;20054;-85
2023/08/05 08:41:15;;;;;;;14.40;6.60;;;;;;;29.76;40.58;94492.53;4943713;28;20244;-85
2023/08/05 08:43:43;;;;;;;10.43;7.10;;;;;;;29.44;40.43;94438.34;4939372;28;20074;-84
2023/08/05 08:46:11;;;;;;;10.52;7.68;;;;;;;29.81;40.70;94490.13;5012043;28;20060;-85
2023/08/05 08:48:38;;;;;;;13.52;6.90;;;;;;;29.65;41.06;94448.97;4941131;28;20035;-85
2023/08/05 08:51:04;;;;;;;18.30;9.75;;;;;;;29.54;41.05;94424.53;5008693;28;20039;-86
2023/08/05 08:53:32;;;;;;;19.58;12.60;;;;;;;29.38;40.98;94391.59;4944075;28;20520;-87
2023/08/05 08:55:58;;;;;;;13.07;7.95;;;;;;;29.98;40.96;94490.28;5016725;28;20055;-88
2023/08/05 08:58:23;;;;;;;12.50;8.05;;;;;;;29.80;41.38;94449.53;4940016;28;20063;-85
2023/08/05 09:00:49;;;;;;;15.02;8.57;;;;;;;29.98;41.54;94476.63;4987719;28;20030;-86
2023/08/05 09:03:22;;;;;;;12.98;8.15;;;;;;;29.93;41.30;94453.25;4969859;28;20070;-88
2023/08/05 09:05:58;;;;;;;11.80;8.27;;;;;;;30.17;40.66;94479.44;4942773;28;20062;-87
2023/08/05 09:08:24;;;;;;;13.38;8.45;;;;;;;30.16;40.43;94447.03;4952887;28;20108;-88
2023/08/05 09:10:50;;;;;;;31.77;9.73;;;;;;;29.63;40.36;94354.94;4972946;28;20039;-87
2023/08/05 09:13:17;;;;;;;11.98;7.75;;;;;;;29.73;40.26;94346.56;4983749;28;20418;-87
2023/08/05 09:15:45;;;;;;;47.67;9.38;;;;;;;30.42;39.95;94462.59;4975879;28;20084;-87
2023/08/05 09:18:11;;;;;;;12.35;8.38;;;;;;;29.96;40.14;94389.56;4957590;28;20027;-87
2023/08/05 09:20:37;;;;;;;15.25;8.10;;;;;;;29.75;39.77;94322.31;5048921;28;20101;-87
2023/08/05 09:23:08;;;;;;;13.90;8.23;;;;;;;30.43;39.65;94436.03;4957036;28;20047;-88
2023/08/05 09:25:38;;;;;;;;;;;;;;;30.88;39.49;94448.09;4998805;28;20034;-88
2023/08/05 09:28:05;;;;;;;8.98;7.97;;;;;;;30.84;38.67;94471.25;4939074;28;19918;-87
2023/08/05 09:30:32;;;;;;;10.35;7.85;;;;;;;30.66;39.68;94445.00;4989243;28;20105;-88
2023/08/05 09:32:58;;;;;;;15.07;8.35;;;;;;;30.92;38.53;94470.69;4958557;28;20054;-85
2023/08/05 09:35:25;;;;;;;12.23;9.10;;;;;;;30.15;38.58;94331.41;4964616;28;20049;-85
2023/08/05 09:37:52;;;;;;;10.32;6.82;;;;;;;31.07;37.88;94446.56;4963439;28;20501;-84
2023/08/05 09:40:28;;;;;;;11.77;7.65;;;;;;;30.68;38.41;94406.25;4946979;28;20039;-85
2023/08/05 09:43:00;;;;;;;9.32;7.30;;;;;;;31.19;38.53;94453.38;4966483;28;20031;-86
2023/08/05 09:45:28;;;;;;;9.23;7.63;;;;;;;31.15;38.90;94426.06;4938876;28;20146;-85
2023/08/05 09:48:09;;;;;;;8.45;7.28;;;;;;;31.34;38.30;94444.44;4940016;28;20098;-85
2023/08/05 09:50:39;;;;;;;8.27;7.15;;;;;;;31.32;37.66;94446.81;4937856;28;20039;-86
2023/08/05 09:53:07;;;;;;;12.32;8.13;;;;;;;31.30;37.67;94416.34;5014783;28;20114;-86
2023/08/05 09:55:34;;;;;;;13.43;9.48;;;;;;;31.62;36.90;94431.31;5010728;28;20035;-86
2023/08/05 09:58:00;;;;;;;11.43;8.15;;;;;;;32.25;36.05;94436.50;5004160;28;20030;-86
2023/08/05 10:00:28;;;;;;;10.77;8.88;;;;;;;32.82;35.50;94402.84;4993713;28;20109;-86
2023/08/05 10:02:54;;;;;;;14.27;7.78;;;;;;;33.27;33.55;94387.03;5027246;28;20058;-85
2023/08/05 10:05:24;;;;;;;7.45;6.60;;;;;;;34.39;32.08;94427.94;4991625;28;20027;-85
2023/08/05 10:07:53;;;;;;;8.65;6.50;;;;;;;35.06;31.46;94448.84;5022379;28;20042;-85
2023/08/05 10:10:20;;;;;;;7.10;5.70;;;;;;;35.55;30.20;94421.47;4977285;28;20043;-85
2023/08/05 10:12:51;;;;;;;15.07;6.43;;;;;;;35.93;28.93;94382.53;4960910;29;20043;-87
2023/08/05 10:15:27;;;;;;;9.07;6.32;;;;;;;36.71;27.81;94396.63;4969174;28;20221;-87
2023/08/05 10:17:53;;;;;;;13.55;6.75;;;;;;;37.26;27.54;94427.00;4963730;28;20476;-85
2023/08/05 10:20:20;;;;;;;9.48;6.03;;;;;;;36.99;27.23;94289.59;4982095;28;20035;-85
2023/08/05 10:23:03;;;;;;;7.10;6.18;;;;;;;38.31;26.64;94430.00;5041240;28;20767;-85
2023/08/05 10:25:49;;;;;;;13.52;6.30;;;;;;;38.53;25.86;94386.16;5054125;28;20025;-86
2023/08/05 10:28:23;;;;;;;6.45;5.55;;;;;;;38.88;24.89;94427.91;4974113;28;20484;-86
2023/08/05 10:30:49;;;;;;;14.13;5.88;;;;;;;38.99;24.96;94426.13;4995617;28;20036;-86
2023/08/05 10:33:24;;;;;;;9.00;6.03;;;;;;;39.23;25.18;94392.78;5003025;28;20044;-86
2023/08/05 10:35:50;;;;;;;8.93;5.93;;;;;;;39.35;25.15;94397.31;4970898;28;20101;-87
2023/08/05 10:38:17;;;;;;;9.95;6.18;;;;;;;39.64;25.01;94420.75;5008869;28;20144;-86
2023/08/05 10:40:55;;;;;;;7.65;5.72;;;;;;;39.72;25.08;94424.66;5001195;28;20053;-86
2023/08/05 10:43:28;;;;;;;11.93;5.60;;;;;;;40.11;24.39;94411.38;4977472;28;20064;-86
2023/08/05 10:45:56;;;;;;;8.43;5.70;;;;;;;40.02;24.23;94390.06;4990359;28;20031;-86
2023/08/05 10:48:43;;;;;;;11.40;5.60;;;;;;;39.77;24.97;94393.44;4969919;28;20059;-86
2023/08/05 10:51:11;;;;;;;7.82;6.05;;;;;;;39.98;24.76;94380.38;4982853;28;20031;-86
2023/08/05 10:53:37;;;;;;;10.57;5.20;;;;;;;40.22;23.90;94367.09;4956889;28;20515;-85
2023/08/05 10:56:07;;;;;;;6.40;5.45;;;;;;;40.42;23.62;94389.38;4974174;28;20047;-85
2023/08/05 10:58:35;;;;;;;;;;;;;;;40.32;24.32;94396.28;4958438;28;20540;-86
2023/08/05 11:01:02;;;;;;;6.18;5.57;;;;;;;40.30;24.32;94390.47;5010813;28;19917;-86
2023/08/05 11:03:32;;;;;;;8.60;5.57;;;;;;;40.48;23.78;94389.44;5009159;28;20053;-85
2023/08/05 11:06:02;;;;;;;7.93;5.78;;;;;;;40.23;24.81;94381.75;4939877;28;20042;-85
2023/08/05 11:08:27;;;;;;;11.05;5.72;;;;;;;40.64;23.69;94383.31;4937174;28;20814;-85
2023/08/05 11:10:53;;;;;;;12.35;5.55;;;;;;;40.35;24.05;94370.34;4961975;28;20043;-86
2023/08/05 11:13:19;;;;;;;24.42;6.85;;;;;;;40.24;24.12;94336.06;4995840;28;20043;-87
2023/08/05 11:16:03;;;;;;;10.60;6.00;;;;;;;40.46;23.79;94367.69;4955632;28;20402;-86
2023/08/05 11:18:29;;;;;;;17.65;5.95;;;;;;;40.19;24.03;94295.88;4953859;28;20444;-86
2023/08/05 11:20:55;;;;;;;11.70;6.00;;;;;;;40.55;23.45;94327.09;4937341;28;20047;-86
2023/08/05 11:23:22;;;;;;;7.95;5.50;;;;;;;40.86;23.40;94330.75;4995482;28;20039;-86
2023/08/05 11:25:47;;;;;;;9.70;6.80;;;;;;;40.73;23.01;94302.59;5040224;28;20041;-87
2023/08/05 11:28:13;;;;;;;10.13;5.15;;;;;;;40.82;22.71;94284.94;4973688;28;20054;-87